createdAt,value
2022-09-13T00:00:52.998Z,100.00
2022-09-13T00:03:22.079Z,100.00
2022-09-13T00:05:50.417Z,100.00
2022-09-13T00:08:19.262Z,100.00
2022-09-13T00:10:48.999Z,100.00
2022-09-13T00:13:18.255Z,100.00
2022-09-13T00:15:48.190Z,100.00
2022-09-13T00:18:16.848Z,100.00
2022-09-13T00:20:44.830Z,100.00
2022-09-13T00:23:13.258Z,100.00
2022-09-13T00:25:41.429Z,100.00
2022-09-13T00:28:10.766Z,100.00
2022-09-13T00:30:38.716Z,100.00
2022-09-13T00:33:06.677Z,100.00
2022-09-13T00:35:35.664Z,100.00
2022-09-13T00:38:03.660Z,100.00
2022-09-13T00:40:31.688Z,100.00
2022-09-13T00:42:59.665Z,100.00
2022-09-13T00:45:29.128Z,100.00
2022-09-13T00:48:01.489Z,100.00
2022-09-13T00:50:34.198Z,100.00
2022-09-13T00:53:06.628Z,100.00
2022-09-13T00:55:39.913Z,100.00
2022-09-13T00:58:14.264Z,100.00
2022-09-13T01:00:45.658Z,100.00
2022-09-13T01:03:16.070Z,100.00
2022-09-13T01:05:47.143Z,100.00
2022-09-13T01:08:22.796Z,100.00
2022-09-13T01:10:52.446Z,100.00
2022-09-13T01:13:22.998Z,100.00
2022-09-13T01:15:53.141Z,100.00
2022-09-13T01:18:21.610Z,100.00
2022-09-13T01:21:30.893Z,100.00
2022-09-13T01:24:17.796Z,100.00
2022-09-13T01:27:36.621Z,100.00
2022-09-13T01:30:15.869Z,100.00
2022-09-13T01:33:02.717Z,100.00
2022-09-13T01:35:42.503Z,100.00
2022-09-13T01:38:23.296Z,100.00
2022-09-13T01:41:04.944Z,100.00
2022-09-13T01:43:43.303Z,100.00
2022-09-13T01:46:18.936Z,100.00
2022-09-13T01:48:57.392Z,100.00
2022-09-13T01:51:33.115Z,100.00
2022-09-13T01:54:14.344Z,100.00
2022-09-13T01:56:50.479Z,100.00
2022-09-13T01:59:25.108Z,100.00
2022-09-13T02:02:02.751Z,100.00
2022-09-13T02:04:37.092Z,100.00
2022-09-13T02:09:38.077Z,100.00
2022-09-13T02:12:10.070Z,100.00
2022-09-13T02:14:40.166Z,100.00
2022-09-13T02:17:15.266Z,100.00
2022-09-13T02:19:49.778Z,100.00
2022-09-13T02:22:23.104Z,100.00
2022-09-13T02:24:56.821Z,100.00
2022-09-13T02:27:28.606Z,100.00
2022-09-13T02:29:59.625Z,100.00
2022-09-13T02:32:34.526Z,100.00
2022-09-13T02:35:06.981Z,100.00
2022-09-13T02:37:39.149Z,100.00
2022-09-13T02:40:12.937Z,100.00
2022-09-13T02:42:44.426Z,100.00
2022-09-13T02:45:15.496Z,100.00
2022-09-13T02:47:53.073Z,100.00
2022-09-13T02:50:33.892Z,100.00
2022-09-13T02:53:06.824Z,100.00
2022-09-13T02:55:43.654Z,100.00
2022-09-13T02:58:17.121Z,100.00
2022-09-13T03:00:46.514Z,100.00
2022-09-13T03:03:18.174Z,100.00
2022-09-13T03:05:46.148Z,100.00
2022-09-13T03:08:17.353Z,100.00
2022-09-13T03:10:55.258Z,100.00
2022-09-13T03:13:38.749Z,100.00
2022-09-13T03:16:20.025Z,100.00
2022-09-13T03:19:00.165Z,100.00
2022-09-13T03:21:47.813Z,100.00
2022-09-13T03:24:23.492Z,100.00
2022-09-13T03:27:04.533Z,100.00
2022-09-13T03:29:41.241Z,100.00
2022-09-13T03:32:21.360Z,100.00
2022-09-13T03:34:59.162Z,100.00
2022-09-13T03:37:34.441Z,100.00
2022-09-13T03:40:09.633Z,100.00
2022-09-13T03:42:44.994Z,100.00
2022-09-13T03:45:15.970Z,100.00
2022-09-13T03:47:46.829Z,100.00
2022-09-13T03:50:21.010Z,100.00
2022-09-13T03:52:53.858Z,100.00
2022-09-13T03:55:22.984Z,100.00
2022-09-13T03:57:50.939Z,100.00
2022-09-13T04:00:19.890Z,100.00
2022-09-13T04:02:47.970Z,100.00
2022-09-13T04:05:17.901Z,100.00
2022-09-13T04:07:45.949Z,100.00
2022-09-13T04:10:14.287Z,100.00
2022-09-13T04:12:42.486Z,100.00
2022-09-13T04:15:11.219Z,100.00
2022-09-13T04:17:39.195Z,100.00
2022-09-13T04:20:07.762Z,100.00
2022-09-13T04:22:37.070Z,100.00
2022-09-13T04:25:05.846Z,100.00
2022-09-13T04:27:35.625Z,100.00
2022-09-13T04:30:04.027Z,100.00
2022-09-13T04:32:32.434Z,100.00
2022-09-13T04:35:00.390Z,100.00
2022-09-13T04:37:28.307Z,100.00
2022-09-13T04:39:58.747Z,100.00
2022-09-13T04:42:26.756Z,100.00
2022-09-13T04:44:55.750Z,100.00
2022-09-13T04:47:23.693Z,100.00
2022-09-13T04:49:51.635Z,100.00
2022-09-13T04:52:19.843Z,100.00
2022-09-13T04:54:48.677Z,100.00
2022-09-13T04:57:17.965Z,100.00
2022-09-13T04:59:45.949Z,100.00
2022-09-13T05:02:14.023Z,100.00
2022-09-13T05:04:42.051Z,100.00
2022-09-13T05:07:10.065Z,100.00
2022-09-13T05:09:38.133Z,100.00
2022-09-13T05:12:08.661Z,100.00
2022-09-13T05:14:38.006Z,100.00
2022-09-13T05:17:06.051Z,100.00
2022-09-13T05:19:34.991Z,100.00
2022-09-13T05:22:03.450Z,100.00
2022-09-13T05:24:31.384Z,100.00
2022-09-13T05:26:59.335Z,100.00
2022-09-13T05:29:27.317Z,100.00
2022-09-13T05:31:56.626Z,100.00
2022-09-13T05:34:24.583Z,100.00
2022-09-13T05:36:54.388Z,100.00
2022-09-13T05:39:44.000Z,100.00
2022-09-13T05:42:10.897Z,100.00
2022-09-13T05:44:38.896Z,100.00
2022-09-13T05:47:08.305Z,100.00
2022-09-13T05:49:45.977Z,100.00
2022-09-13T05:52:32.588Z,100.00
2022-09-13T05:55:00.578Z,100.00
2022-09-13T05:57:28.542Z,100.00
2022-09-13T05:59:56.506Z,100.00
2022-09-13T06:02:24.480Z,100.00
2022-09-13T06:04:52.441Z,100.00
2022-09-13T06:07:20.464Z,100.00
2022-09-13T06:09:49.854Z,100.00
2022-09-13T06:12:17.823Z,100.00
2022-09-13T06:14:45.809Z,100.00
2022-09-13T06:17:13.781Z,100.00
2022-09-13T06:19:41.952Z,100.00
2022-09-13T06:22:09.945Z,100.00
2022-09-13T06:24:38.325Z,100.00
2022-09-13T06:27:07.857Z,100.00
2022-09-13T06:29:35.791Z,100.00
2022-09-13T06:32:04.344Z,100.00
2022-09-13T06:34:32.451Z,100.00
2022-09-13T06:37:00.460Z,100.00
2022-09-13T06:39:29.264Z,100.00
2022-09-13T06:41:57.209Z,100.00
2022-09-13T06:44:26.712Z,100.00
2022-09-13T06:46:54.649Z,100.00
2022-09-13T06:49:22.793Z,100.00
2022-09-13T06:51:50.749Z,100.00
2022-09-13T06:54:18.881Z,100.00
2022-09-13T06:56:46.814Z,100.00
2022-09-13T06:59:14.936Z,100.00
2022-09-13T07:01:45.099Z,100.00
2022-09-13T07:04:15.162Z,100.00
2022-09-13T07:06:45.311Z,100.00
2022-09-13T07:09:17.168Z,100.00
2022-09-13T07:11:47.053Z,100.00
2022-09-13T07:14:16.356Z,100.00
2022-09-13T07:16:46.876Z,100.00
2022-09-13T07:19:17.509Z,100.00
2022-09-13T07:21:45.890Z,100.00
2022-09-13T07:24:13.884Z,100.00
2022-09-13T07:26:41.848Z,100.00
2022-09-13T07:29:13.562Z,100.00
2022-09-13T07:31:43.835Z,100.00
2022-09-13T07:34:15.897Z,100.00
2022-09-13T07:36:44.857Z,100.00
2022-09-13T07:39:16.326Z,100.00
2022-09-13T07:41:46.977Z,100.00
2022-09-13T07:44:15.200Z,100.00
2022-09-13T07:46:44.379Z,100.00
2022-09-13T07:49:15.280Z,100.00
2022-09-13T07:51:44.680Z,100.00
2022-09-13T07:54:14.357Z,100.00
2022-09-13T07:56:43.197Z,100.00
2022-09-13T07:59:14.406Z,100.00
2022-09-13T08:01:43.784Z,100.00
2022-09-13T08:04:15.238Z,100.00
2022-09-13T08:06:43.587Z,100.00
2022-09-13T08:09:12.134Z,100.00
2022-09-13T08:11:42.014Z,100.00
2022-09-13T08:14:11.840Z,100.00
2022-09-13T08:16:40.411Z,100.00
2022-09-13T08:19:09.582Z,100.00
2022-09-13T08:21:41.979Z,100.00
2022-09-13T08:24:14.854Z,100.00
2022-09-13T08:26:42.876Z,100.00
2022-09-13T08:29:13.143Z,100.00
2022-09-13T08:31:41.459Z,100.00
2022-09-13T08:34:12.589Z,100.00
2022-09-13T08:36:42.139Z,100.00
2022-09-13T08:39:12.795Z,100.00
2022-09-13T08:42:07.912Z,100.00
2022-09-13T08:44:38.392Z,100.00
2022-09-13T08:47:28.534Z,100.00
2022-09-13T08:50:04.986Z,100.00
2022-09-13T08:52:41.674Z,100.00
2022-09-13T08:55:23.997Z,100.00
2022-09-13T08:57:57.491Z,100.00
2022-09-13T09:00:34.383Z,100.00
2022-09-13T09:03:15.574Z,100.00
2022-09-13T09:05:48.982Z,100.00
2022-09-13T09:08:28.989Z,100.00
2022-09-13T09:11:00.138Z,100.00
2022-09-13T09:13:30.733Z,100.00
2022-09-13T09:16:02.682Z,100.00
2022-09-13T09:18:34.151Z,100.00
2022-09-13T09:21:04.038Z,100.00
2022-09-13T09:23:41.717Z,100.00
2022-09-13T09:26:18.467Z,100.00
2022-09-13T09:28:51.760Z,100.00
2022-09-13T09:31:32.283Z,100.00
2022-09-13T09:34:12.194Z,100.00
2022-09-13T09:36:43.645Z,100.00
2022-09-13T09:39:16.366Z,100.00
2022-09-13T09:41:45.672Z,100.00
2022-09-13T09:44:19.050Z,100.00
2022-09-13T09:46:51.064Z,100.00
2022-09-13T09:49:42.720Z,100.00
2022-09-13T09:52:14.621Z,100.00
2022-09-13T09:54:44.722Z,100.00
2022-09-13T09:57:14.402Z,100.00
2022-09-13T09:59:42.405Z,100.00
2022-09-13T10:02:18.442Z,100.00
2022-09-13T10:04:57.218Z,100.00
2022-09-13T10:07:32.689Z,100.00
2022-09-13T10:10:06.482Z,100.00
2022-09-13T10:12:37.476Z,100.00
2022-09-13T10:15:16.481Z,100.00
2022-09-13T10:17:45.010Z,100.00
2022-09-13T10:20:26.764Z,100.00
2022-09-13T10:23:21.501Z,100.00
2022-09-13T10:26:04.177Z,100.00
2022-09-13T10:28:34.912Z,100.00
2022-09-13T10:31:06.309Z,100.00
2022-09-13T10:33:38.325Z,100.00
2022-09-13T10:36:14.109Z,100.00
2022-09-13T10:38:54.133Z,100.00
2022-09-13T10:41:27.406Z,100.00
2022-09-13T10:43:59.654Z,100.00
2022-09-13T10:46:30.035Z,100.00
2022-09-13T10:48:58.013Z,100.00
2022-09-13T10:51:38.052Z,100.00
2022-09-13T10:54:16.712Z,100.00
2022-09-13T10:56:46.372Z,100.00
2022-09-13T10:59:22.965Z,100.00
2022-09-13T11:02:03.439Z,100.00
2022-09-13T11:05:06.238Z,100.00
2022-09-13T11:08:12.835Z,96.87
2022-09-13T11:10:49.893Z,99.46
2022-09-13T11:13:29.036Z,100.00
2022-09-13T11:16:05.797Z,100.00
2022-09-13T11:19:13.830Z,100.00
2022-09-13T11:21:55.710Z,100.00
2022-09-13T11:24:45.885Z,100.00
2022-09-13T11:27:21.772Z,100.00
2022-09-13T11:30:09.579Z,97.47
2022-09-13T11:32:53.616Z,96.39
2022-09-13T11:35:37.260Z,91.23
2022-09-13T11:38:21.802Z,89.51
2022-09-13T11:40:56.912Z,89.87
2022-09-13T11:43:38.806Z,91.71
2022-09-13T11:46:17.054Z,92.08
2022-09-13T11:49:07.388Z,91.38
2022-09-13T11:51:51.713Z,91.89
2022-09-13T11:54:37.798Z,95.33
2022-09-13T11:57:09.666Z,92.45
2022-09-13T11:59:41.907Z,93.83
2022-09-13T12:02:21.325Z,91.25
2022-09-13T12:05:20.423Z,92.85
2022-09-13T12:07:47.851Z,90.30
2022-09-13T12:10:21.357Z,83.47
2022-09-13T12:12:52.203Z,81.68
2022-09-13T12:15:27.878Z,79.63
2022-09-13T12:18:03.106Z,78.34
2022-09-13T12:20:35.334Z,77.22
2022-09-13T12:23:07.048Z,73.03
2022-09-13T12:25:43.757Z,77.43
2022-09-13T12:28:18.949Z,74.11
2022-09-13T12:30:53.052Z,70.25
2022-09-13T12:33:22.725Z,71.79
2022-09-13T12:36:18.043Z,63.50
2022-09-13T12:39:28.510Z,59.40
2022-09-13T12:42:19.481Z,54.77
2022-09-13T12:45:03.761Z,53.00
2022-09-13T12:47:54.125Z,50.89
2022-09-13T12:50:44.159Z,53.98
2022-09-13T12:53:32.483Z,56.16
2022-09-13T12:56:31.911Z,57.45
2022-09-13T12:59:21.634Z,59.83
2022-09-13T13:01:52.289Z,61.21
2022-09-13T13:04:23.222Z,65.12
2022-09-13T13:06:56.810Z,72.03
2022-09-13T13:09:32.362Z,76.53
2022-09-13T13:12:00.765Z,82.20
2022-09-13T13:14:53.283Z,88.08
2022-09-13T13:17:43.083Z,88.43
2022-09-13T13:21:08.783Z,77.74
2022-09-13T13:23:40.145Z,70.73
2022-09-13T13:26:11.968Z,66.64
2022-09-13T13:29:06.472Z,73.11
2022-09-13T13:31:40.264Z,80.78
2022-09-13T13:34:37.447Z,89.56
2022-09-13T13:37:07.189Z,98.39
2022-09-13T13:39:39.956Z,100.00
2022-09-13T13:42:25.450Z,96.05
2022-09-13T13:45:19.284Z,91.59
2022-09-13T13:48:08.944Z,93.58
2022-09-13T13:50:57.706Z,92.46
2022-09-13T13:53:37.641Z,85.69
2022-09-13T13:56:23.471Z,77.74
2022-09-13T13:58:55.638Z,77.90
2022-09-13T14:01:27.147Z,70.30
2022-09-13T14:04:31.338Z,64.39
2022-09-13T14:07:19.622Z,66.72
2022-09-13T14:09:55.963Z,61.71
2022-09-13T14:12:36.073Z,58.99
2022-09-13T14:15:24.940Z,59.86
2022-09-13T14:18:38.220Z,60.14
2022-09-13T14:21:20.613Z,58.11
2022-09-13T14:23:48.781Z,61.21
2022-09-13T14:26:16.937Z,66.86
2022-09-13T14:28:46.311Z,62.03
2022-09-13T14:31:20.382Z,60.64
2022-09-13T14:33:49.005Z,65.62
2022-09-13T14:36:20.052Z,71.60
2022-09-13T14:38:54.796Z,74.81
2022-09-13T14:41:32.144Z,71.50
2022-09-13T14:47:01.097Z,73.67
2022-09-13T14:49:34.082Z,69.04
2022-09-13T14:52:06.086Z,72.33
2022-09-13T14:54:38.493Z,70.91
2022-09-13T14:57:11.192Z,67.40
2022-09-13T14:59:46.343Z,66.59
2022-09-13T15:02:21.542Z,60.58
2022-09-13T15:04:52.675Z,60.91
2022-09-13T15:07:28.644Z,60.47
2022-09-13T15:10:00.704Z,65.17
2022-09-13T15:12:29.995Z,68.75
2022-09-13T15:15:22.960Z,70.12
2022-09-13T15:17:57.254Z,70.70
2022-09-13T15:20:26.971Z,70.19
2022-09-13T15:22:55.532Z,72.59
2022-09-13T15:25:26.957Z,75.09
2022-09-13T15:27:56.054Z,78.96
2022-09-13T15:30:28.024Z,80.45
2022-09-13T15:33:16.597Z,83.36
2022-09-13T15:35:45.939Z,80.72
2022-09-13T15:38:24.529Z,77.61
2022-09-13T15:41:02.228Z,74.87
2022-09-13T15:43:31.243Z,77.34
2022-09-13T15:46:01.512Z,80.75
2022-09-13T15:48:32.442Z,81.64
2022-09-13T15:51:10.509Z,83.88
2022-09-13T15:53:40.001Z,83.67
2022-09-13T15:56:09.417Z,83.14
2022-09-13T15:58:38.326Z,80.54
2022-09-13T16:01:06.912Z,77.63
2022-09-13T16:03:36.353Z,77.79
2022-09-13T16:06:04.381Z,77.61
2022-09-13T16:08:32.351Z,78.36
2022-09-13T16:11:00.378Z,80.42
2022-09-13T16:13:28.341Z,82.01
2022-09-13T16:15:58.067Z,83.16
2022-09-13T16:18:26.331Z,83.14
2022-09-13T16:20:55.802Z,83.84
2022-09-13T16:23:23.892Z,84.48
2022-09-13T16:25:56.334Z,84.57
2022-09-13T16:28:24.616Z,85.01
2022-09-13T16:30:53.063Z,85.55
2022-09-13T16:33:21.367Z,86.08
2022-09-13T16:35:49.578Z,86.86
2022-09-13T16:38:18.914Z,87.42
2022-09-13T16:40:46.870Z,88.88
2022-09-13T16:43:14.817Z,89.24
2022-09-13T16:45:44.797Z,90.03
2022-09-13T16:48:12.845Z,91.27
2022-09-13T16:50:41.584Z,91.51
2022-09-13T16:53:09.985Z,92.73
2022-09-13T16:55:39.286Z,94.10
2022-09-13T16:58:07.270Z,96.87
2022-09-13T17:00:35.272Z,97.69
2022-09-13T17:03:03.331Z,98.98
2022-09-13T17:05:31.405Z,100.00
2022-09-13T17:07:59.388Z,100.00
2022-09-13T17:10:28.774Z,100.00
2022-09-13T17:12:58.138Z,100.00
2022-09-13T17:15:26.173Z,100.00
2022-09-13T17:17:54.158Z,100.00
2022-09-13T17:20:22.599Z,100.00
2022-09-13T17:22:50.548Z,100.00
2022-09-13T17:25:20.774Z,100.00
2022-09-13T17:27:48.738Z,100.00
2022-09-13T17:30:18.137Z,100.00
2022-09-13T17:32:46.102Z,100.00
2022-09-13T17:35:14.145Z,100.00
2022-09-13T17:37:42.092Z,100.00
2022-09-13T17:40:10.781Z,100.00
2022-09-13T17:42:38.969Z,100.00
2022-09-13T17:45:07.401Z,100.00
2022-09-13T17:47:36.780Z,100.00
2022-09-13T17:50:05.142Z,100.00
2022-09-13T17:52:35.053Z,100.00
2022-09-13T17:55:03.307Z,100.00
2022-09-13T17:57:31.401Z,100.00
2022-09-13T17:59:59.362Z,100.00
2022-09-13T18:02:27.936Z,100.00
2022-09-13T18:04:57.367Z,100.00
2022-09-13T18:07:25.345Z,100.00
2022-09-13T18:09:53.500Z,100.00
2022-09-13T18:12:21.492Z,100.00
2022-09-13T18:14:49.446Z,100.00
2022-09-13T18:17:17.414Z,100.00
2022-09-13T18:19:46.959Z,100.00
2022-09-13T18:22:16.853Z,100.00
2022-09-13T18:24:44.853Z,100.00
2022-09-13T18:27:12.865Z,100.00
2022-09-13T18:29:40.871Z,100.00
2022-09-13T18:32:08.790Z,100.00
2022-09-13T18:34:36.734Z,100.00
2022-09-13T18:37:04.924Z,100.00
2022-09-13T18:39:34.317Z,100.00
2022-09-13T18:42:02.274Z,100.00
2022-09-13T18:44:30.794Z,100.00
2022-09-13T18:47:00.558Z,100.00
2022-09-13T18:49:28.486Z,100.00
2022-09-13T18:51:56.429Z,100.00
2022-09-13T18:54:24.355Z,100.00
2022-09-13T18:56:54.899Z,100.00
2022-09-13T18:59:22.973Z,100.00
2022-09-13T19:01:51.310Z,100.00
2022-09-13T19:04:20.799Z,100.00
2022-09-13T19:06:51.941Z,100.00
2022-09-13T19:09:22.688Z,100.00
2022-09-13T19:11:53.711Z,100.00
2022-09-13T19:14:23.882Z,100.00
2022-09-13T19:16:52.639Z,100.00
2022-09-13T19:19:20.705Z,100.00
2022-09-13T19:21:49.162Z,100.00
2022-09-13T19:24:19.103Z,100.00
2022-09-13T19:26:50.563Z,100.00
2022-09-13T19:29:22.750Z,100.00
2022-09-13T19:31:52.657Z,100.00
2022-09-13T19:34:22.551Z,100.00
2022-09-13T19:36:54.260Z,100.00
2022-09-13T19:39:25.833Z,100.00
2022-09-13T19:41:56.665Z,100.00
2022-09-13T19:44:25.987Z,100.00
2022-09-13T19:47:14.839Z,100.00
2022-09-13T19:49:41.859Z,100.00
2022-09-13T19:52:09.833Z,100.00
2022-09-13T19:54:37.789Z,100.00
2022-09-13T19:57:07.653Z,100.00
2022-09-13T19:59:36.998Z,100.00
2022-09-13T20:02:06.030Z,100.00
2022-09-13T20:04:34.079Z,100.00
2022-09-13T20:07:02.096Z,100.00
2022-09-13T20:09:31.488Z,100.00
2022-09-13T20:12:00.587Z,100.00
2022-09-13T20:14:28.926Z,100.00
2022-09-13T20:16:58.879Z,100.00
2022-09-13T20:19:46.393Z,100.00
2022-09-13T20:22:15.247Z,100.00
2022-09-13T20:24:43.200Z,100.00
2022-09-13T20:27:11.502Z,100.00
2022-09-13T20:29:40.355Z,100.00
2022-09-13T20:32:10.996Z,100.00
2022-09-13T20:34:39.219Z,100.00
2022-09-13T20:37:07.236Z,100.00
2022-09-13T20:39:35.186Z,100.00
2022-09-13T20:42:03.140Z,100.00
2022-09-13T20:44:31.121Z,100.00
2022-09-13T20:46:59.094Z,100.00
2022-09-13T20:49:30.165Z,100.00
2022-09-13T20:51:58.132Z,100.00
2022-09-13T20:54:26.239Z,100.00
2022-09-13T20:56:54.221Z,100.00
2022-09-13T20:59:22.688Z,100.00
2022-09-13T21:01:50.784Z,100.00
2022-09-13T21:04:18.801Z,100.00
2022-09-13T21:07:05.521Z,100.00
2022-09-13T21:09:33.556Z,100.00
2022-09-13T21:12:02.345Z,100.00
2022-09-13T21:14:33.988Z,100.00
2022-09-13T21:17:07.625Z,100.00
2022-09-13T21:19:35.763Z,100.00
2022-09-13T21:22:05.091Z,100.00
2022-09-13T21:24:33.004Z,100.00
2022-09-13T21:27:00.944Z,100.00
2022-09-13T21:29:29.306Z,100.00
2022-09-13T21:31:57.246Z,100.00
2022-09-13T21:34:27.260Z,100.00
2022-09-13T21:36:55.536Z,100.00
2022-09-13T21:39:24.860Z,100.00
2022-09-13T21:41:52.803Z,100.00
2022-09-13T21:44:20.716Z,100.00
2022-09-13T21:46:48.687Z,100.00
2022-09-13T21:49:17.216Z,100.00
2022-09-13T21:51:47.122Z,100.00
2022-09-13T21:54:17.382Z,100.00
2022-09-13T21:56:53.785Z,100.00
2022-09-13T21:59:23.732Z,100.00
2022-09-13T22:01:54.146Z,100.00
2022-09-13T22:04:24.624Z,100.00
2022-09-13T22:06:53.854Z,100.00
2022-09-13T22:09:24.597Z,100.00
2022-09-13T22:11:54.536Z,100.00
2022-09-13T22:14:22.529Z,100.00
2022-09-13T22:16:52.551Z,100.00
2022-09-13T22:19:23.431Z,100.00
2022-09-13T22:21:54.130Z,100.00
2022-09-13T22:24:23.376Z,100.00
2022-09-13T22:26:54.493Z,100.00
2022-09-13T22:29:23.274Z,100.00
2022-09-13T22:31:52.432Z,100.00
2022-09-13T22:34:22.593Z,100.00
2022-09-13T22:36:50.634Z,100.00
2022-09-13T22:39:19.057Z,100.00
2022-09-13T22:41:47.137Z,100.00
2022-09-13T22:44:16.552Z,100.00
2022-09-13T22:46:46.446Z,100.00
2022-09-13T22:49:15.768Z,100.00
2022-09-13T22:51:44.931Z,100.00
2022-09-13T22:54:13.536Z,100.00
2022-09-13T22:56:41.990Z,100.00
2022-09-13T22:59:12.587Z,100.00
2022-09-13T23:01:42.479Z,100.00
2022-09-13T23:04:10.693Z,100.00
2022-09-13T23:06:38.863Z,100.00
2022-09-13T23:09:08.649Z,100.00
2022-09-13T23:11:38.497Z,100.00
2022-09-13T23:14:08.437Z,100.00
2022-09-13T23:16:38.095Z,100.00
2022-09-13T23:19:07.773Z,100.00
2022-09-13T23:21:37.952Z,100.00
2022-09-13T23:24:07.608Z,100.00
2022-09-13T23:26:35.733Z,100.00
2022-09-13T23:29:05.480Z,100.00
2022-09-13T23:31:35.667Z,100.00
2022-09-13T23:34:06.037Z,100.00
2022-09-13T23:36:37.042Z,100.00
2022-09-13T23:39:07.908Z,100.00
2022-09-13T23:41:35.962Z,100.00
2022-09-13T23:44:04.724Z,100.00
2022-09-13T23:46:32.742Z,100.00
2022-09-13T23:49:00.698Z,100.00
2022-09-13T23:51:28.822Z,100.00
2022-09-13T23:54:00.523Z,100.00
2022-09-13T23:56:31.200Z,100.00
2022-09-13T23:59:00.811Z,100.00
